CheckWX is a tool to help pilots better visualize weather data.  It is not intended as a substitute for an official pre-flight weather briefing.

01:09:30 UTC

ENMH METAR
Mehamn Airport
Mehamn, Norway
Current

3 hours ago

ENMH 232150Z 26015KT 9999 -SHRA VV007 05/03 Q1006
Observed
Feb-23 @ 21:50 UTC
Wind
  • 260° at 15 KTS
Visibility
10,000+ meters
Flight Rules
LIFR
Conditions
Light Rain
Cloud Levels
  • Vertical visibility at 700' AGL
Temperature
C / 41°F
Dewpoint
C / 37°F
Humidity
87%
Altimeter
29.7" Hg
Pressure
1005.92 hPa
Previous

17 hours ago

ENMH 230820Z 28022G37KT 9999 BKN025 05/00 Q1003
Observed
Feb-23 @ 08:20 UTC
Wind
  • 280° at 22 KTS
  • Gusting to 37 KTS
Visibility
10,000+ meters
Flight Rules
MVFR
Cloud Levels
  • Broken at 2,500' AGL
Temperature
C / 41°F
Dewpoint
C / 32°F
Humidity
70%
Altimeter
29.62" Hg
Pressure
1002.92 hPa